Observations for SYDNEY INTL AIRPORT, Australia (YSSY)

YSSY 221000Z 09004KT 9999 FEW040 SCT300 20/14 Q1021 NOSIG   
YSSY 220930Z 11004KT 9999 FEW040 SCT300 20/13 Q1021 NOSIG   
YSSY 220900Z 09005KT 9999 FEW040 SCT300 20/13 Q1021 NOSIG   
YSSY 220830Z 08006KT CAVOK 20/14 Q1021 NOSIG
YSSY 220800Z 08006KT CAVOK 21/14 Q1021 NOSIG
YSSY 220730Z 10007KT 9999 FEW028 SCT300 21/14 Q1021 NOSIG   
YSSY 220700Z 13007KT 9999 FEW028 SCT300 21/15 Q1021 NOSIG   
YSSY 220630Z 15008KT 9999 FEW030 SCT300 21/16 Q1021 NOSIG   
YSSY 220600Z 14009KT 9999 FEW030 22/16 Q1021 NOSIG  
YSSY 220530Z 13010KT 9999 FEW035 22/16 Q1021 NOSIG  
YSSY 220500Z 13011KT 9999 FEW035 23/15 Q1021 NOSIG  
YSSY 220430Z 15009KT 9999 FEW040 23/15 Q1021 NOSIG  
YSSY 220400Z 16009KT 9999 FEW040 22/16 Q1021 NOSIG  
YSSY 220330Z 17011KT 9999 FEW040 21/16 Q1021 NOSIG  
YSSY 220300Z 17010KT 9999 FEW040 22/16 Q1021 NOSIG  
YSSY 220230Z 17011KT 9999 FEW040 22/16 Q1022 NOSIG  
YSSY 220200Z 17012KT 9999 FEW040 22/16 Q1022 NOSIG  
YSSY 220130Z 18011KT 9999 FEW037 21/15 Q1022 NOSIG  
YSSY 220100Z 17012KT 9999 FEW035 21/15 Q1023 NOSIG  
YSSY 220030Z 19012KT 9999 FEW035 21/15 Q1023 NOSIG  
YSSY 220000Z 18010KT 9999 FEW035 21/15 Q1023 NOSIG  
YSSY 212330Z 19010KT 9999 FEW032 21/15 Q1023 NOSIG  
YSSY 212300Z 20010KT 9999 FEW030 21/15 Q1023 NOSIG  
YSSY 212230Z 21007KT 9999 FEW030 19/14 Q1023 NOSIG  
YSSY 212200Z 24005KT 9999 FEW025 18/13 Q1023 NOSIG  
YSSY 212130Z 28006KT 9999 FEW025 17/13 Q1023 NOSIG  
YSSY 212100Z 24008KT 9999 FEW025 17/13 Q1023 NOSIG  
YSSY 212030Z 23007KT 9999 FEW025 16/13 Q1022 NOSIG  
YSSY 212000Z 20010KT 9999 FEW025 16/13 Q1022 NOSIG  
YSSY 211930Z 20011KT 9999 FEW025 16/13 Q1022 NOSIG  
YSSY 211900Z 21008KT 9999 FEW020 16/14 Q1022 NOSIG  
YSSY 211830Z 21009KT 9999 FEW025 16/14 Q1022
YSSY 211800Z 21009KT 9999 FEW025 17/14 Q1022 NOSIG  
YSSY 211730Z 21007KT 9999 FEW025 17/14 Q1022 NOSIG  
YSSY 211700Z 22007KT 9999 FEW025 18/14 Q1022 NOSIG  
YSSY 211630Z 23007KT 9999 FEW020 18/13 Q1022 NOSIG  
YSSY 211600Z 18008KT 9999 FEW025 19/14 Q1022 NOSIG  
YSSY 211530Z 16008KT 9999 FEW025 19/14 Q1022 NOSIG  
YSSY 211500Z 16007KT 9999 FEW025 19/13 Q1022
YSSY 211430Z 16008KT 9999 FEW025 SCT033 19/13 Q1022 NOSIG   
YSSY 211400Z 16008KT 9999 FEW025 BKN033 20/13 Q1022 NOSIG   
YSSY 211330Z 15009KT 9999 FEW030 BKN045 20/14 Q1022 NOSIG   
YSSY 211300Z 16007KT 9999 FEW025 SCT030 BKN040 20/14 Q1023 NOSIG
YSSY 211230Z 15008KT 9999 FEW025 SCT030 BKN050 20/14 Q1023 NOSIG
YSSY 211200Z 15009KT 9999 FEW025 SCT040 BKN050 20/14 Q1023 NOSIG
YSSY 211130Z 14010KT 9999 FEW025 BKN040 20/15 Q1023 NOSIG   
YSSY 211100Z 14009KT 9999 FEW025 SCT035 20/14 Q1023 NOSIG   
YSSY 211030Z 15009KT 9999 FEW025 BKN035 20/14 Q1023 NOSIG   
YSSY 211000Z 15011KT 9999 FEW025 SCT035 BKN059 20/15 Q1022 NOSIG
YSSY 210930Z 14011KT 9999 FEW025 20/15 Q1022 NOSIG